Jet, OK

4:53 AM CDT on August 01, 2014 (GMT -0500)
Amateur Radio W5PDB (KOKJET2) Elev 1280 ft | 36.67 °N, 98.18 °W | Change Station

Current weather conditions updated 1 minute ago

Clear
Clear
66.4 °F
Feels Like 66.4 °F
N
0.0
Wind Variable Wind from SE

Today is forecast to be nearly the same temperature as yesterday.

Today
High -- | Low -- °F
--% Chance of Precip.
Yesterday
High -- | Low -- °F
Precip. -- in
6:38 AM 8:38 PM
Waxing Crescent, 25% visible
Pressure 30.05 in
Visibility 10.0 miles
Clouds Clear
Dew Point 59 °F
Humidity 77%
Rainfall -999.00 in
Snow Depth Not available.
UV 0 out of 12
Pollen 6.40 out of 12
Air Quality Not available.
Flu Activity Not available.
METAR KEND 010857Z 28001KT 10SM R35C/4500FT CLR 17/17 A3007 RMK AO2A SLP175 56010

More Conditions Fewer Conditions

Pressure 30.05 in
Visibility 10.0 miles
Clouds Clear
Dew Point 59 °F
Humidity 77%
Rainfall -999.00 in
Snow Depth Not available.
UV 0 out of 12
Pollen 6.40 out of 12
Air Quality Not available.
Flu Activity Not available.
METAR KEND 010857Z 28001KT 10SM R35C/4500FT CLR 17/17 A3007 RMK AO2A SLP175 56010

More Conditions Fewer Conditions

10-Day Weather Forecast

Almanac

Astronomy

Aug. 01, 2014 Rise Set
Actual Time 6:38 AM CDT 8:38 PM CDT
Civil Twilight 6:09 AM CDT 9:07 PM CDT
Nautical Twilight 5:34 AM CDT 9:42 PM CDT
Astronomical Twilight 4:57 AM CDT 10:19 PM CDT
Moon 11:53 AM CDT 11:34 PM CDT
Length of Visible Light 14h 57m
Length of Day
14h 00m
Tomorrow will be 1m 46s shorter.
Waxing Crescent, 25% of the Moon is Illuminated
Today
Waxing Crescent
Aug 3
First Quarter
Aug 10
Full
Aug 17
Last Quarter
Aug 25
New

Today's Extremes

State Highs State Lows

Community

WunderPhotos

Upload Photos

1,739,530 photos uploaded!

Nearby

Snow Depth

Station Depth Elevation
No new snow has been reported.

Earthquake Activity

City Distance Mag. Time & Date
Yale, Oklahoma 82 miles 3.2 5:19 PM CDT
2014-07-27
Medford, Oklahoma 15 miles 2.9 3:39 PM CDT
2014-07-27
Perry, Oklahoma 47 miles 2.8 4:28 AM CDT
2014-07-27
Caldwell, Kansas 31 miles 3.4 5:57 AM CDT
2014-07-26
Minimum magnitude displayed is 2.5.

Coastal Water Temperatures

Place Temperature
No Stations Reporting

Nearby Weather Stations

Station Location Temp. Dew Point Humidity Wind Precip. Elev Updated Type
Amateur Radio W5PDB, Jet, OK 66.4 °F 59 °F 77% SE  at  0.0 mph - / hr 1280 ft 4:51 AM CDT Rapid Fire
West, Cherokee, OK 63.6 °F 61 °F 90% NE  at  0.0 mph - / hr 1201 ft 4:41 AM CDT Normal
MesoWest PNDCRK , Pond Creek, OK 66 °F - - North  at  - 0.00 in / hr 1068 ft 2:00 AM CDT MADIS
pr14, Enid, OK 62.4 °F 61 °F 96% SSE  at  0.0 mph 0.00 in / hr 1316 ft 4:52 AM CDT Normal

Show More Stations Show Fewer Stations